sensor_id;sensor_type;location;lat;lon;timestamp;P1;durP1;ratioP1;P2;durP2;ratioP2
7901;SDS011;3996;49.674;10.716;2024-03-08T00:00:10;19.23;;;12.97;;
7901;SDS011;3996;49.674;10.716;2024-03-08T00:02:39;19.70;;;13.10;;
7901;SDS011;3996;49.674;10.716;2024-03-08T00:05:06;21.23;;;13.43;;
7901;SDS011;3996;49.674;10.716;2024-03-08T00:07:36;20.27;;;12.47;;
7901;SDS011;3996;49.674;10.716;2024-03-08T00:10:05;19.93;;;12.53;;
7901;SDS011;3996;49.674;10.716;2024-03-08T00:12:36;19.60;;;12.57;;
7901;SDS011;3996;49.674;10.716;2024-03-08T00:15:11;19.60;;;13.17;;
7901;SDS011;3996;49.674;10.716;2024-03-08T00:17:39;18.30;;;12.07;;
7901;SDS011;3996;49.674;10.716;2024-03-08T00:20:05;19.13;;;13.10;;
7901;SDS011;3996;49.674;10.716;2024-03-08T00:22:36;16.00;;;11.60;;
7901;SDS011;3996;49.674;10.716;2024-03-08T00:25:03;20.50;;;11.47;;
7901;SDS011;3996;49.674;10.716;2024-03-08T00:27:29;18.67;;;13.13;;
7901;SDS011;3996;49.674;10.716;2024-03-08T00:29:58;19.13;;;12.37;;
7901;SDS011;3996;49.674;10.716;2024-03-08T00:32:24;17.97;;;12.40;;
7901;SDS011;3996;49.674;10.716;2024-03-08T00:34:50;19.80;;;13.47;;
7901;SDS011;3996;49.674;10.716;2024-03-08T00:37:19;21.03;;;12.53;;
7901;SDS011;3996;49.674;10.716;2024-03-08T00:39:46;20.33;;;13.57;;
7901;SDS011;3996;49.674;10.716;2024-03-08T00:42:12;18.50;;;12.60;;
7901;SDS011;3996;49.674;10.716;2024-03-08T00:44:39;18.53;;;12.27;;
7901;SDS011;3996;49.674;10.716;2024-03-08T00:47:05;21.20;;;13.60;;
7901;SDS011;3996;49.674;10.716;2024-03-08T00:49:30;20.30;;;12.97;;
7901;SDS011;3996;49.674;10.716;2024-03-08T00:51:56;18.30;;;12.30;;
7901;SDS011;3996;49.674;10.716;2024-03-08T00:54:21;19.27;;;12.63;;
7901;SDS011;3996;49.674;10.716;2024-03-08T00:56:47;19.17;;;12.77;;
7901;SDS011;3996;49.674;10.716;2024-03-08T00:59:13;20.23;;;11.63;;
7901;SDS011;3996;49.674;10.716;2024-03-08T01:01:40;22.30;;;13.50;;
7901;SDS011;3996;49.674;10.716;2024-03-08T01:04:06;17.87;;;11.50;;
7901;SDS011;3996;49.674;10.716;2024-03-08T01:06:32;18.43;;;12.10;;
7901;SDS011;3996;49.674;10.716;2024-03-08T01:08:59;18.90;;;12.57;;
7901;SDS011;3996;49.674;10.716;2024-03-08T01:11:24;18.53;;;12.03;;
7901;SDS011;3996;49.674;10.716;2024-03-08T01:13:50;19.10;;;12.33;;
7901;SDS011;3996;49.674;10.716;2024-03-08T01:16:15;19.47;;;12.90;;
7901;SDS011;3996;49.674;10.716;2024-03-08T01:18:42;21.90;;;12.50;;
7901;SDS011;3996;49.674;10.716;2024-03-08T01:21:08;19.90;;;13.13;;
7901;SDS011;3996;49.674;10.716;2024-03-08T01:23:34;20.80;;;13.70;;
7901;SDS011;3996;49.674;10.716;2024-03-08T01:26:00;21.90;;;13.23;;
7901;SDS011;3996;49.674;10.716;2024-03-08T01:28:27;18.53;;;12.60;;
7901;SDS011;3996;49.674;10.716;2024-03-08T01:30:52;18.07;;;11.93;;
7901;SDS011;3996;49.674;10.716;2024-03-08T01:33:23;19.07;;;11.93;;
7901;SDS011;3996;49.674;10.716;2024-03-08T01:35:50;19.03;;;12.57;;
7901;SDS011;3996;49.674;10.716;2024-03-08T01:38:16;21.93;;;12.97;;
7901;SDS011;3996;49.674;10.716;2024-03-08T01:40:42;19.87;;;12.80;;
7901;SDS011;3996;49.674;10.716;2024-03-08T01:43:20;18.37;;;11.83;;
7901;SDS011;3996;49.674;10.716;2024-03-08T01:45:47;19.43;;;12.27;;
7901;SDS011;3996;49.674;10.716;2024-03-08T01:48:14;20.77;;;13.00;;
7901;SDS011;3996;49.674;10.716;2024-03-08T01:50:41;20.10;;;12.20;;
7901;SDS011;3996;49.674;10.716;2024-03-08T01:53:08;19.30;;;12.43;;
7901;SDS011;3996;49.674;10.716;2024-03-08T01:55:36;21.30;;;12.10;;
7901;SDS011;3996;49.674;10.716;2024-03-08T01:58:03;20.10;;;13.60;;
7901;SDS011;3996;49.674;10.716;2024-03-08T02:00:30;31.63;;;19.17;;
7901;SDS011;3996;49.674;10.716;2024-03-08T02:02:56;34.27;;;20.03;;
7901;SDS011;3996;49.674;10.716;2024-03-08T02:05:22;22.80;;;14.50;;
7901;SDS011;3996;49.674;10.716;2024-03-08T02:07:48;21.53;;;13.97;;
7901;SDS011;3996;49.674;10.716;2024-03-08T02:10:14;21.60;;;13.30;;
7901;SDS011;3996;49.674;10.716;2024-03-08T02:12:40;19.30;;;12.73;;
7901;SDS011;3996;49.674;10.716;2024-03-08T02:15:06;20.47;;;12.70;;
7901;SDS011;3996;49.674;10.716;2024-03-08T02:17:32;20.40;;;12.87;;
7901;SDS011;3996;49.674;10.716;2024-03-08T02:20:00;20.17;;;13.00;;
7901;SDS011;3996;49.674;10.716;2024-03-08T02:22:30;18.23;;;12.40;;
7901;SDS011;3996;49.674;10.716;2024-03-08T02:24:56;20.70;;;12.70;;
7901;SDS011;3996;49.674;10.716;2024-03-08T02:27:26;19.40;;;12.47;;
7901;SDS011;3996;49.674;10.716;2024-03-08T02:29:53;18.37;;;11.77;;
7901;SDS011;3996;49.674;10.716;2024-03-08T02:32:21;18.57;;;12.90;;
7901;SDS011;3996;49.674;10.716;2024-03-08T02:34:47;19.20;;;12.37;;
7901;SDS011;3996;49.674;10.716;2024-03-08T02:37:13;19.57;;;12.30;;
7901;SDS011;3996;49.674;10.716;2024-03-08T02:39:38;19.33;;;12.63;;
7901;SDS011;3996;49.674;10.716;2024-03-08T02:42:04;20.10;;;13.30;;
7901;SDS011;3996;49.674;10.716;2024-03-08T02:44:29;19.57;;;11.83;;
7901;SDS011;3996;49.674;10.716;2024-03-08T02:46:55;16.97;;;11.33;;
7901;SDS011;3996;49.674;10.716;2024-03-08T02:49:21;20.07;;;11.97;;
7901;SDS011;3996;49.674;10.716;2024-03-08T02:51:46;20.00;;;13.10;;
7901;SDS011;3996;49.674;10.716;2024-03-08T02:54:12;18.23;;;12.33;;
7901;SDS011;3996;49.674;10.716;2024-03-08T02:56:38;19.57;;;12.37;;
7901;SDS011;3996;49.674;10.716;2024-03-08T02:59:03;18.13;;;12.53;;
7901;SDS011;3996;49.674;10.716;2024-03-08T03:01:29;19.00;;;12.13;;
7901;SDS011;3996;49.674;10.716;2024-03-08T03:03:54;22.70;;;12.57;;
7901;SDS011;3996;49.674;10.716;2024-03-08T03:06:20;19.37;;;12.30;;
7901;SDS011;3996;49.674;10.716;2024-03-08T03:08:46;17.80;;;11.50;;
7901;SDS011;3996;49.674;10.716;2024-03-08T03:11:12;19.77;;;12.63;;
7901;SDS011;3996;49.674;10.716;2024-03-08T03:13:38;19.60;;;12.43;;
7901;SDS011;3996;49.674;10.716;2024-03-08T03:16:05;20.87;;;11.87;;
7901;SDS011;3996;49.674;10.716;2024-03-08T03:18:30;19.37;;;12.50;;
7901;SDS011;3996;49.674;10.716;2024-03-08T03:20:58;18.93;;;12.20;;
7901;SDS011;3996;49.674;10.716;2024-03-08T03:23:23;20.20;;;12.40;;
7901;SDS011;3996;49.674;10.716;2024-03-08T03:25:51;18.03;;;12.60;;
7901;SDS011;3996;49.674;10.716;2024-03-08T03:28:17;18.73;;;12.27;;
7901;SDS011;3996;49.674;10.716;2024-03-08T03:30:44;22.27;;;12.20;;
7901;SDS011;3996;49.674;10.716;2024-03-08T03:33:11;18.90;;;12.07;;
7901;SDS011;3996;49.674;10.716;2024-03-08T03:35:41;19.80;;;12.53;;
7901;SDS011;3996;49.674;10.716;2024-03-08T03:38:07;19.40;;;12.67;;
7901;SDS011;3996;49.674;10.716;2024-03-08T03:40:33;20.97;;;12.83;;
7901;SDS011;3996;49.674;10.716;2024-03-08T03:43:02;18.77;;;12.47;;
7901;SDS011;3996;49.674;10.716;2024-03-08T03:45:28;20.87;;;13.27;;
7901;SDS011;3996;49.674;10.716;2024-03-08T03:47:54;20.00;;;12.40;;
7901;SDS011;3996;49.674;10.716;2024-03-08T03:50:21;19.53;;;13.30;;
7901;SDS011;3996;49.674;10.716;2024-03-08T03:52:49;21.83;;;12.53;;
7901;SDS011;3996;49.674;10.716;2024-03-08T03:55:15;19.83;;;12.80;;
7901;SDS011;3996;49.674;10.716;2024-03-08T03:57:41;22.00;;;13.23;;
7901;SDS011;3996;49.674;10.716;2024-03-08T04:00:07;19.57;;;13.10;;
7901;SDS011;3996;49.674;10.716;2024-03-08T04:02:37;21.10;;;13.60;;
7901;SDS011;3996;49.674;10.716;2024-03-08T04:05:04;20.40;;;12.63;;
7901;SDS011;3996;49.674;10.716;2024-03-08T04:07:34;19.27;;;12.47;;
7901;SDS011;3996;49.674;10.716;2024-03-08T04:10:03;22.03;;;13.40;;
7901;SDS011;3996;49.674;10.716;2024-03-08T04:12:31;21.50;;;13.60;;
7901;SDS011;3996;49.674;10.716;2024-03-08T04:14:57;22.80;;;13.53;;
7901;SDS011;3996;49.674;10.716;2024-03-08T04:17:23;21.50;;;13.00;;
7901;SDS011;3996;49.674;10.716;2024-03-08T04:19:51;21.43;;;13.63;;
7901;SDS011;3996;49.674;10.716;2024-03-08T04:22:22;20.60;;;13.10;;
7901;SDS011;3996;49.674;10.716;2024-03-08T04:24:48;20.37;;;13.20;;
7901;SDS011;3996;49.674;10.716;2024-03-08T04:27:13;22.83;;;13.47;;
7901;SDS011;3996;49.674;10.716;2024-03-08T04:29:39;22.73;;;13.10;;
7901;SDS011;3996;49.674;10.716;2024-03-08T04:32:06;21.37;;;13.37;;
7901;SDS011;3996;49.674;10.716;2024-03-08T04:34:33;21.57;;;12.90;;
7901;SDS011;3996;49.674;10.716;2024-03-08T04:37:02;20.73;;;13.10;;
7901;SDS011;3996;49.674;10.716;2024-03-08T04:39:29;22.57;;;14.50;;
7901;SDS011;3996;49.674;10.716;2024-03-08T04:41:57;22.07;;;13.87;;
7901;SDS011;3996;49.674;10.716;2024-03-08T04:44:25;21.23;;;12.93;;
7901;SDS011;3996;49.674;10.716;2024-03-08T04:46:51;25.23;;;14.60;;
7901;SDS011;3996;49.674;10.716;2024-03-08T04:49:16;22.40;;;14.53;;
7901;SDS011;3996;49.674;10.716;2024-03-08T04:51:42;21.97;;;13.70;;
7901;SDS011;3996;49.674;10.716;2024-03-08T04:54:09;23.37;;;13.97;;
7901;SDS011;3996;49.674;10.716;2024-03-08T04:56:35;21.33;;;13.50;;
7901;SDS011;3996;49.674;10.716;2024-03-08T04:59:01;21.80;;;13.97;;
7901;SDS011;3996;49.674;10.716;2024-03-08T05:01:26;21.37;;;14.17;;
7901;SDS011;3996;49.674;10.716;2024-03-08T05:03:52;21.13;;;13.83;;
7901;SDS011;3996;49.674;10.716;2024-03-08T05:06:20;24.33;;;14.83;;
7901;SDS011;3996;49.674;10.716;2024-03-08T05:08:46;24.00;;;14.77;;
7901;SDS011;3996;49.674;10.716;2024-03-08T05:11:11;21.90;;;13.93;;
7901;SDS011;3996;49.674;10.716;2024-03-08T05:13:39;24.43;;;14.80;;
7901;SDS011;3996;49.674;10.716;2024-03-08T05:16:05;25.40;;;15.90;;
7901;SDS011;3996;49.674;10.716;2024-03-08T05:18:32;25.37;;;15.73;;
7901;SDS011;3996;49.674;10.716;2024-03-08T05:20:58;23.63;;;15.40;;
7901;SDS011;3996;49.674;10.716;2024-03-08T05:23:24;23.43;;;15.03;;
7901;SDS011;3996;49.674;10.716;2024-03-08T05:25:49;23.43;;;14.70;;
7901;SDS011;3996;49.674;10.716;2024-03-08T05:28:49;25.10;;;15.63;;
7901;SDS011;3996;49.674;10.716;2024-03-08T05:31:37;23.83;;;15.43;;
7901;SDS011;3996;49.674;10.716;2024-03-08T05:38:47;25.10;;;15.70;;
7901;SDS011;3996;49.674;10.716;2024-03-08T05:49:15;24.80;;;13.90;;
7901;SDS011;3996;49.674;10.716;2024-03-08T05:52:56;24.77;;;15.70;;
7901;SDS011;3996;49.674;10.716;2024-03-08T05:55:51;23.07;;;14.13;;
7901;SDS011;3996;49.674;10.716;2024-03-08T05:58:40;22.23;;;14.40;;
7901;SDS011;3996;49.674;10.716;2024-03-08T06:01:05;23.70;;;15.17;;
7901;SDS011;3996;49.674;10.716;2024-03-08T06:03:33;23.63;;;15.27;;
7901;SDS011;3996;49.674;10.716;2024-03-08T06:06:01;26.43;;;15.77;;
7901;SDS011;3996;49.674;10.716;2024-03-08T06:08:27;24.53;;;15.73;;
7901;SDS011;3996;49.674;10.716;2024-03-08T06:10:55;25.40;;;14.97;;
7901;SDS011;3996;49.674;10.716;2024-03-08T06:13:20;24.37;;;15.10;;
7901;SDS011;3996;49.674;10.716;2024-03-08T06:15:46;25.93;;;15.83;;
7901;SDS011;3996;49.674;10.716;2024-03-08T06:18:12;25.67;;;16.40;;
7901;SDS011;3996;49.674;10.716;2024-03-08T06:20:37;24.70;;;15.27;;
7901;SDS011;3996;49.674;10.716;2024-03-08T06:23:03;24.53;;;14.83;;
7901;SDS011;3996;49.674;10.716;2024-03-08T06:25:28;23.57;;;15.27;;
7901;SDS011;3996;49.674;10.716;2024-03-08T06:27:54;24.77;;;16.00;;
7901;SDS011;3996;49.674;10.716;2024-03-08T06:30:20;24.57;;;15.57;;
7901;SDS011;3996;49.674;10.716;2024-03-08T06:32:46;22.30;;;15.03;;
7901;SDS011;3996;49.674;10.716;2024-03-08T06:35:12;26.43;;;15.40;;
7901;SDS011;3996;49.674;10.716;2024-03-08T06:37:37;24.23;;;15.77;;
7901;SDS011;3996;49.674;10.716;2024-03-08T06:40:03;26.67;;;15.80;;
7901;SDS011;3996;49.674;10.716;2024-03-08T06:42:29;23.93;;;15.63;;
7901;SDS011;3996;49.674;10.716;2024-03-08T06:45:01;22.33;;;14.97;;
7901;SDS011;3996;49.674;10.716;2024-03-08T06:47:31;23.87;;;14.70;;
7901;SDS011;3996;49.674;10.716;2024-03-08T06:49:58;21.83;;;14.93;;
7901;SDS011;3996;49.674;10.716;2024-03-08T06:52:23;25.40;;;15.83;;
7901;SDS011;3996;49.674;10.716;2024-03-08T06:54:49;22.47;;;15.20;;
7901;SDS011;3996;49.674;10.716;2024-03-08T06:57:17;21.53;;;15.27;;
7901;SDS011;3996;49.674;10.716;2024-03-08T06:59:43;21.77;;;14.73;;
7901;SDS011;3996;49.674;10.716;2024-03-08T07:02:08;24.03;;;15.43;;
7901;SDS011;3996;49.674;10.716;2024-03-08T07:04:34;21.13;;;15.13;;
7901;SDS011;3996;49.674;10.716;2024-03-08T07:07:03;22.70;;;16.10;;
7901;SDS011;3996;49.674;10.716;2024-03-08T07:09:29;22.27;;;15.83;;
7901;SDS011;3996;49.674;10.716;2024-03-08T07:11:55;22.00;;;16.00;;
7901;SDS011;3996;49.674;10.716;2024-03-08T07:14:49;21.23;;;15.00;;
7901;SDS011;3996;49.674;10.716;2024-03-08T07:17:16;21.77;;;15.57;;
7901;SDS011;3996;49.674;10.716;2024-03-08T07:22:44;23.27;;;15.67;;
7901;SDS011;3996;49.674;10.716;2024-03-08T07:25:45;20.77;;;15.00;;
7901;SDS011;3996;49.674;10.716;2024-03-08T07:35:29;20.83;;;15.80;;
7901;SDS011;3996;49.674;10.716;2024-03-08T07:38:11;23.40;;;15.33;;
7901;SDS011;3996;49.674;10.716;2024-03-08T07:40:54;23.07;;;15.70;;
7901;SDS011;3996;49.674;10.716;2024-03-08T07:43:58;22.57;;;15.97;;
7901;SDS011;3996;49.674;10.716;2024-03-08T07:46:32;24.60;;;17.20;;
7901;SDS011;3996;49.674;10.716;2024-03-08T07:49:07;23.20;;;16.37;;
7901;SDS011;3996;49.674;10.716;2024-03-08T07:51:36;22.63;;;15.97;;
7901;SDS011;3996;49.674;10.716;2024-03-08T07:54:02;26.27;;;16.80;;
7901;SDS011;3996;49.674;10.716;2024-03-08T07:56:29;25.20;;;16.30;;
7901;SDS011;3996;49.674;10.716;2024-03-08T07:58:55;23.40;;;15.90;;
7901;SDS011;3996;49.674;10.716;2024-03-08T08:01:21;24.43;;;15.70;;
7901;SDS011;3996;49.674;10.716;2024-03-08T08:03:47;24.90;;;16.37;;
7901;SDS011;3996;49.674;10.716;2024-03-08T08:06:15;22.63;;;15.20;;
7901;SDS011;3996;49.674;10.716;2024-03-08T08:08:41;25.93;;;15.07;;
7901;SDS011;3996;49.674;10.716;2024-03-08T08:11:07;25.33;;;16.43;;
7901;SDS011;3996;49.674;10.716;2024-03-08T08:13:34;25.17;;;15.67;;
7901;SDS011;3996;49.674;10.716;2024-03-08T08:16:01;24.73;;;16.17;;
7901;SDS011;3996;49.674;10.716;2024-03-08T08:18:27;23.20;;;15.17;;
7901;SDS011;3996;49.674;10.716;2024-03-08T08:20:54;23.60;;;14.10;;
7901;SDS011;3996;49.674;10.716;2024-03-08T08:23:20;22.67;;;14.93;;
7901;SDS011;3996;49.674;10.716;2024-03-08T08:25:46;23.90;;;15.33;;
7901;SDS011;3996;49.674;10.716;2024-03-08T08:28:15;22.47;;;14.67;;
7901;SDS011;3996;49.674;10.716;2024-03-08T08:30:43;21.87;;;14.63;;
7901;SDS011;3996;49.674;10.716;2024-03-08T08:33:09;23.37;;;14.60;;
7901;SDS011;3996;49.674;10.716;2024-03-08T08:35:35;23.43;;;15.80;;
7901;SDS011;3996;49.674;10.716;2024-03-08T08:38:06;27.50;;;16.07;;
7901;SDS011;3996;49.674;10.716;2024-03-08T08:40:35;23.53;;;14.37;;
7901;SDS011;3996;49.674;10.716;2024-03-08T08:43:03;24.50;;;15.80;;
7901;SDS011;3996;49.674;10.716;2024-03-08T08:45:29;21.67;;;14.17;;
7901;SDS011;3996;49.674;10.716;2024-03-08T08:47:55;20.53;;;13.93;;
7901;SDS011;3996;49.674;10.716;2024-03-08T08:50:21;22.83;;;13.93;;
7901;SDS011;3996;49.674;10.716;2024-03-08T08:52:51;20.67;;;13.90;;
7901;SDS011;3996;49.674;10.716;2024-03-08T08:55:18;21.60;;;13.93;;
7901;SDS011;3996;49.674;10.716;2024-03-08T08:57:46;20.07;;;12.90;;
7901;SDS011;3996;49.674;10.716;2024-03-08T09:00:13;24.77;;;13.13;;
7901;SDS011;3996;49.674;10.716;2024-03-08T09:02:41;22.07;;;13.50;;
7901;SDS011;3996;49.674;10.716;2024-03-08T09:05:08;19.23;;;12.43;;
7901;SDS011;3996;49.674;10.716;2024-03-08T09:07:33;19.50;;;12.73;;
7901;SDS011;3996;49.674;10.716;2024-03-08T09:10:02;21.53;;;13.13;;
7901;SDS011;3996;49.674;10.716;2024-03-08T09:12:28;18.57;;;12.47;;
7901;SDS011;3996;49.674;10.716;2024-03-08T09:14:54;20.87;;;13.27;;
7901;SDS011;3996;49.674;10.716;2024-03-08T09:17:19;21.33;;;12.67;;
7901;SDS011;3996;49.674;10.716;2024-03-08T09:19:49;19.50;;;13.33;;
7901;SDS011;3996;49.674;10.716;2024-03-08T09:22:15;21.17;;;13.30;;
7901;SDS011;3996;49.674;10.716;2024-03-08T09:24:40;20.27;;;13.10;;
7901;SDS011;3996;49.674;10.716;2024-03-08T09:27:08;19.83;;;12.97;;
7901;SDS011;3996;49.674;10.716;2024-03-08T09:29:35;19.70;;;12.87;;
7901;SDS011;3996;49.674;10.716;2024-03-08T09:32:00;23.97;;;15.70;;
7901;SDS011;3996;49.674;10.716;2024-03-08T09:34:27;20.13;;;13.30;;
7901;SDS011;3996;49.674;10.716;2024-03-08T09:39:50;20.00;;;13.40;;
7901;SDS011;3996;49.674;10.716;2024-03-08T09:45:43;17.57;;;12.10;;
7901;SDS011;3996;49.674;10.716;2024-03-08T09:51:49;22.30;;;13.20;;
7901;SDS011;3996;49.674;10.716;2024-03-08T09:54:16;19.47;;;12.97;;
7901;SDS011;3996;49.674;10.716;2024-03-08T09:56:42;26.30;;;12.67;;
7901;SDS011;3996;49.674;10.716;2024-03-08T09:59:11;19.70;;;12.17;;
7901;SDS011;3996;49.674;10.716;2024-03-08T10:02:12;21.77;;;12.67;;
7901;SDS011;3996;49.674;10.716;2024-03-08T10:04:39;17.03;;;11.60;;
7901;SDS011;3996;49.674;10.716;2024-03-08T10:07:15;19.53;;;12.77;;
7901;SDS011;3996;49.674;10.716;2024-03-08T10:09:41;19.77;;;13.20;;
7901;SDS011;3996;49.674;10.716;2024-03-08T10:12:12;18.60;;;11.53;;
7901;SDS011;3996;49.674;10.716;2024-03-08T10:14:38;19.57;;;11.60;;
7901;SDS011;3996;49.674;10.716;2024-03-08T10:17:05;18.67;;;11.67;;
7901;SDS011;3996;49.674;10.716;2024-03-08T10:19:30;18.50;;;11.57;;
7901;SDS011;3996;49.674;10.716;2024-03-08T10:21:57;19.67;;;11.17;;
7901;SDS011;3996;49.674;10.716;2024-03-08T10:24:23;18.30;;;12.10;;
7901;SDS011;3996;49.674;10.716;2024-03-08T10:26:53;18.83;;;11.60;;
7901;SDS011;3996;49.674;10.716;2024-03-08T10:29:23;16.07;;;11.20;;
7901;SDS011;3996;49.674;10.716;2024-03-08T10:31:49;17.00;;;11.70;;
7901;SDS011;3996;49.674;10.716;2024-03-08T10:34:16;18.60;;;11.43;;
7901;SDS011;3996;49.674;10.716;2024-03-08T10:36:42;16.77;;;12.03;;
7901;SDS011;3996;49.674;10.716;2024-03-08T10:39:12;18.17;;;10.57;;
7901;SDS011;3996;49.674;10.716;2024-03-08T10:41:53;15.93;;;11.07;;
7901;SDS011;3996;49.674;10.716;2024-03-08T10:47:00;16.73;;;10.77;;
7901;SDS011;3996;49.674;10.716;2024-03-08T10:49:38;17.03;;;11.80;;
7901;SDS011;3996;49.674;10.716;2024-03-08T10:52:08;17.03;;;12.03;;
7901;SDS011;3996;49.674;10.716;2024-03-08T10:54:37;17.97;;;11.20;;
7901;SDS011;3996;49.674;10.716;2024-03-08T10:57:03;16.47;;;11.50;;
7901;SDS011;3996;49.674;10.716;2024-03-08T10:59:31;17.13;;;10.57;;
7901;SDS011;3996;49.674;10.716;2024-03-08T11:01:58;16.50;;;11.60;;
7901;SDS011;3996;49.674;10.716;2024-03-08T11:04:24;16.80;;;11.60;;
7901;SDS011;3996;49.674;10.716;2024-03-08T11:06:50;18.03;;;11.63;;
7901;SDS011;3996;49.674;10.716;2024-03-08T11:09:33;16.43;;;10.77;;
7901;SDS011;3996;49.674;10.716;2024-03-08T11:14:51;19.37;;;11.27;;
7901;SDS011;3996;49.674;10.716;2024-03-08T11:17:21;15.50;;;10.67;;
7901;SDS011;3996;49.674;10.716;2024-03-08T11:19:54;19.30;;;11.20;;
7901;SDS011;3996;49.674;10.716;2024-03-08T11:22:22;16.67;;;10.20;;
7901;SDS011;3996;49.674;10.716;2024-03-08T11:24:52;14.37;;;10.07;;
7901;SDS011;3996;49.674;10.716;2024-03-08T11:27:18;15.67;;;10.03;;
7901;SDS011;3996;49.674;10.716;2024-03-08T11:29:45;12.67;;;9.60;;
7901;SDS011;3996;49.674;10.716;2024-03-08T11:32:27;15.90;;;10.60;;
7901;SDS011;3996;49.674;10.716;2024-03-08T11:34:54;16.00;;;10.57;;
7901;SDS011;3996;49.674;10.716;2024-03-08T11:37:20;14.67;;;9.60;;
7901;SDS011;3996;49.674;10.716;2024-03-08T11:39:47;14.73;;;9.33;;
7901;SDS011;3996;49.674;10.716;2024-03-08T11:42:14;14.20;;;9.50;;
7901;SDS011;3996;49.674;10.716;2024-03-08T11:44:42;13.30;;;9.67;;
7901;SDS011;3996;49.674;10.716;2024-03-08T11:47:09;13.03;;;9.50;;
7901;SDS011;3996;49.674;10.716;2024-03-08T11:49:36;14.03;;;9.47;;
7901;SDS011;3996;49.674;10.716;2024-03-08T11:52:02;11.60;;;8.77;;
7901;SDS011;3996;49.674;10.716;2024-03-08T11:54:28;12.87;;;8.73;;
7901;SDS011;3996;49.674;10.716;2024-03-08T11:56:59;13.00;;;8.37;;
7901;SDS011;3996;49.674;10.716;2024-03-08T11:59:26;13.80;;;8.60;;
7901;SDS011;3996;49.674;10.716;2024-03-08T12:01:58;15.30;;;9.80;;
7901;SDS011;3996;49.674;10.716;2024-03-08T12:04:24;12.53;;;9.07;;
7901;SDS011;3996;49.674;10.716;2024-03-08T12:06:50;12.00;;;8.93;;
7901;SDS011;3996;49.674;10.716;2024-03-08T12:09:15;11.87;;;8.47;;
7901;SDS011;3996;49.674;10.716;2024-03-08T12:11:41;14.13;;;9.27;;
7901;SDS011;3996;49.674;10.716;2024-03-08T12:14:07;12.03;;;8.70;;
7901;SDS011;3996;49.674;10.716;2024-03-08T12:16:33;11.97;;;8.17;;
7901;SDS011;3996;49.674;10.716;2024-03-08T12:18:59;12.43;;;8.57;;
7901;SDS011;3996;49.674;10.716;2024-03-08T12:21:26;13.70;;;9.50;;
7901;SDS011;3996;49.674;10.716;2024-03-08T12:24:07;13.17;;;8.47;;
7901;SDS011;3996;49.674;10.716;2024-03-08T12:26:35;11.83;;;8.47;;
7901;SDS011;3996;49.674;10.716;2024-03-08T12:31:57;12.27;;;7.67;;
7901;SDS011;3996;49.674;10.716;2024-03-08T12:34:25;12.10;;;8.57;;
7901;SDS011;3996;49.674;10.716;2024-03-08T12:36:53;10.87;;;8.37;;
7901;SDS011;3996;49.674;10.716;2024-03-08T12:39:20;11.27;;;7.93;;
7901;SDS011;3996;49.674;10.716;2024-03-08T12:41:52;11.73;;;7.67;;
7901;SDS011;3996;49.674;10.716;2024-03-08T12:44:19;10.73;;;8.00;;
7901;SDS011;3996;49.674;10.716;2024-03-08T12:46:46;12.07;;;8.43;;
7901;SDS011;3996;49.674;10.716;2024-03-08T12:49:13;18.10;;;11.63;;
7901;SDS011;3996;49.674;10.716;2024-03-08T12:51:42;31.63;;;18.47;;
7901;SDS011;3996;49.674;10.716;2024-03-08T12:54:10;10.97;;;7.93;;
7901;SDS011;3996;49.674;10.716;2024-03-08T12:56:36;11.10;;;7.97;;
7901;SDS011;3996;49.674;10.716;2024-03-08T12:59:02;9.73;;;7.50;;
7901;SDS011;3996;49.674;10.716;2024-03-08T13:01:30;11.77;;;8.00;;
7901;SDS011;3996;49.674;10.716;2024-03-08T13:03:59;23.93;;;11.97;;
7901;SDS011;3996;49.674;10.716;2024-03-08T13:06:28;13.33;;;8.63;;
7901;SDS011;3996;49.674;10.716;2024-03-08T13:08:54;14.97;;;9.83;;
7901;SDS011;3996;49.674;10.716;2024-03-08T13:11:20;12.87;;;8.73;;
7901;SDS011;3996;49.674;10.716;2024-03-08T13:13:46;16.07;;;9.87;;
7901;SDS011;3996;49.674;10.716;2024-03-08T13:16:12;12.47;;;9.23;;
7901;SDS011;3996;49.674;10.716;2024-03-08T13:18:42;27.50;;;14.10;;
7901;SDS011;3996;49.674;10.716;2024-03-08T13:21:08;11.17;;;8.20;;
7901;SDS011;3996;49.674;10.716;2024-03-08T13:23:35;13.67;;;8.70;;
7901;SDS011;3996;49.674;10.716;2024-03-08T13:26:06;8.80;;;6.63;;
7901;SDS011;3996;49.674;10.716;2024-03-08T13:28:50;19.93;;;11.57;;
7901;SDS011;3996;49.674;10.716;2024-03-08T13:31:21;10.87;;;7.20;;
7901;SDS011;3996;49.674;10.716;2024-03-08T13:33:47;10.70;;;7.33;;
7901;SDS011;3996;49.674;10.716;2024-03-08T13:36:13;11.43;;;7.50;;
7901;SDS011;3996;49.674;10.716;2024-03-08T13:38:48;12.33;;;7.40;;
7901;SDS011;3996;49.674;10.716;2024-03-08T13:41:14;10.13;;;7.60;;
7901;SDS011;3996;49.674;10.716;2024-03-08T13:43:42;11.23;;;8.17;;
7901;SDS011;3996;49.674;10.716;2024-03-08T13:46:11;10.90;;;7.77;;
7901;SDS011;3996;49.674;10.716;2024-03-08T13:48:37;10.80;;;7.63;;
7901;SDS011;3996;49.674;10.716;2024-03-08T13:51:04;10.30;;;7.17;;
7901;SDS011;3996;49.674;10.716;2024-03-08T13:53:31;10.80;;;7.43;;
7901;SDS011;3996;49.674;10.716;2024-03-08T13:55:58;12.13;;;7.23;;
7901;SDS011;3996;49.674;10.716;2024-03-08T13:58:25;9.77;;;7.30;;
7901;SDS011;3996;49.674;10.716;2024-03-08T14:00:52;11.53;;;7.43;;
7901;SDS011;3996;49.674;10.716;2024-03-08T14:03:18;12.67;;;7.73;;
7901;SDS011;3996;49.674;10.716;2024-03-08T14:05:45;12.03;;;8.17;;
7901;SDS011;3996;49.674;10.716;2024-03-08T14:08:11;10.00;;;7.33;;
7901;SDS011;3996;49.674;10.716;2024-03-08T14:10:37;10.90;;;8.10;;
7901;SDS011;3996;49.674;10.716;2024-03-08T14:13:03;13.27;;;7.57;;
7901;SDS011;3996;49.674;10.716;2024-03-08T14:15:31;10.97;;;7.70;;
7901;SDS011;3996;49.674;10.716;2024-03-08T14:17:57;13.30;;;8.17;;
7901;SDS011;3996;49.674;10.716;2024-03-08T14:20:23;12.50;;;8.43;;
7901;SDS011;3996;49.674;10.716;2024-03-08T14:22:52;10.37;;;7.97;;
7901;SDS011;3996;49.674;10.716;2024-03-08T14:25:21;10.90;;;8.00;;
7901;SDS011;3996;49.674;10.716;2024-03-08T14:27:49;11.77;;;7.37;;
7901;SDS011;3996;49.674;10.716;2024-03-08T14:30:15;13.23;;;7.60;;
7901;SDS011;3996;49.674;10.716;2024-03-08T14:32:57;9.07;;;6.80;;
7901;SDS011;3996;49.674;10.716;2024-03-08T14:35:24;11.77;;;7.80;;
7901;SDS011;3996;49.674;10.716;2024-03-08T14:37:50;11.10;;;7.47;;
7901;SDS011;3996;49.674;10.716;2024-03-08T14:40:17;13.63;;;8.27;;
7901;SDS011;3996;49.674;10.716;2024-03-08T14:42:47;18.20;;;9.67;;
7901;SDS011;3996;49.674;10.716;2024-03-08T14:45:14;17.50;;;11.37;;
7901;SDS011;3996;49.674;10.716;2024-03-08T14:47:40;11.43;;;8.03;;
7901;SDS011;3996;49.674;10.716;2024-03-08T14:50:07;11.13;;;8.47;;
7901;SDS011;3996;49.674;10.716;2024-03-08T14:52:35;14.67;;;9.03;;
7901;SDS011;3996;49.674;10.716;2024-03-08T14:55:00;11.97;;;8.57;;
7901;SDS011;3996;49.674;10.716;2024-03-08T14:57:28;9.77;;;7.10;;
7901;SDS011;3996;49.674;10.716;2024-03-08T14:59:53;10.53;;;7.80;;
7901;SDS011;3996;49.674;10.716;2024-03-08T15:02:19;12.93;;;8.57;;
7901;SDS011;3996;49.674;10.716;2024-03-08T15:04:48;12.67;;;9.03;;
7901;SDS011;3996;49.674;10.716;2024-03-08T15:07:21;12.63;;;7.50;;
7901;SDS011;3996;49.674;10.716;2024-03-08T15:09:48;13.23;;;7.63;;
7901;SDS011;3996;49.674;10.716;2024-03-08T15:12:13;12.37;;;8.13;;
7901;SDS011;3996;49.674;10.716;2024-03-08T15:14:40;11.67;;;7.20;;
7901;SDS011;3996;49.674;10.716;2024-03-08T15:17:08;9.93;;;6.87;;
7901;SDS011;3996;49.674;10.716;2024-03-08T15:19:38;10.17;;;7.07;;
7901;SDS011;3996;49.674;10.716;2024-03-08T15:22:04;8.10;;;6.70;;
7901;SDS011;3996;49.674;10.716;2024-03-08T15:24:29;11.27;;;7.83;;